Chahbahar, Iran
Current Conditions -  °F | °C
As of 11:00 AM on Thursday 23 Oct 2014 (Local Time) from OIZI Reporting Station
Clear Clear  
Wind Chill: 88°   Ceiling: Unl
Heat Index: 88°   Visibility: 5mi
Dew Point: 46°   Wind: 7mph
Humidity: 24%   Direction: 240°WSW
Pressure: 30"   Gusts: NA
Location:  25.28°N, 60.62°E
Report Text: OIZI 230800Z 24006KT 8000 SKC 31/08 Q1016
Loading
Personal Weather Stations






























Interactive Weather Map New forecast layout! Learn more

10-Day Weather Forecast

Advertisements
Track Severe Weather on mobile